KHSB/HSB METAR and TAF weather

Enter ICAO airport designator
Station Type Date Time Source
KHSB METAR 2019/12/08 11:15 UTC NOAA

KHSB 081115Z AUTO 09003KT 3SM BR CLR M02/M02 A3014 RMK AO2 T10161019


Station Type Date Time Source
KHSB Decoded METAR 2019/12/08 11:15 UTC NOAA

Harrisburg, Harrisburg-Raleigh Airport, IL, United States (KHSB) 37-48-41N 088-32-57W
Dec 08, 2019 - 06:15 AM EST / 2019.12.08 1115 UTC
Wind: from the E (090 degrees) at 3 MPH (3 KT):0
Visibility: 3 mile(s):0
Sky conditions: clear
Weather: mist
Temperature: 29.1 F (-1.6 C)
Dew Point: 28.6 F (-1.9 C)
Relative Humidity: 97%
Pressure (altimeter): 30.14 in. Hg (1020 hPa)
ob: KHSB 081115Z AUTO 09003KT 3SM BR CLR M02/M02 A3014 RMK AO2 T10161019
cycle: 11

Station Type Date Time Source
KHSB TAF UTC NOAA

Error!

Example: see airport list